Terminal Aerodrome Forecast
Issued by NWS

Home | Current Version | Previous Version | Graphics & Text | Print | Product List | Glossary On
Versions: 1 2 3 4 5 6 7 8 9 10 11 12 13 14 15 16
000
FTUS43 KICT 161010 AAA
TAFRSL
TAF AMD
KRSL 161010Z 1610/1706 16011KT P6SM -SHRA VCTS SCT015CB BKN040
      TEMPO 1610/1612 VRB35G45KT 2SM TSRA BR BKN015CB
     FM161300 18009KT P6SM VCTS SCT015 BKN060CB
     FM161800 23010KT P6SM FEW060 SCT100
     FM162200 33012KT P6SM SCT110=

USA.gov is the U.S. government's official web portal to all federal, state and local government web resources and services.